Time;durP1;ratioP1;P1;durP2;ratioP2;P2;SDS_P1;SDS_P2;PMS_P1;PMS_P2;Temp;Humidity;BMP_temperature;BMP_pressure;BME280_temperature;BME280_humidity;BME280_pressure;Samples;Min_cycle;Max_cycle;Signal;HPM_P1;HPM_P2
2023/03/13 07:56:57;;;;;;;2.30;1.27;;;18.40;65.00;;;;;;5051683;28;20181;-64
2023/03/13 07:59:47;;;;;;;5.05;1.60;;;18.60;64.70;;;;;;5050596;28;20233;-67
2023/03/13 08:02:35;;;;;;;2.78;2.20;;;18.70;64.60;;;;;;5049335;28;20221;-68
2023/03/13 08:05:23;;;;;;;5.60;2.17;;;18.80;64.50;;;;;;5049773;28;20202;-67
2023/03/13 08:08:11;;;;;;;4.20;2.67;;;18.90;64.30;;;;;;5048087;28;20250;-69
2023/03/13 08:11:01;;;;;;;7.20;3.25;;;19.00;64.00;;;;;;5070051;28;20307;-67
2023/03/13 08:13:49;;;;;;;4.93;2.47;;;19.20;64.10;;;;;;5050464;28;20268;-67
2023/03/13 08:16:38;;;;;;;4.28;2.00;;;19.20;63.80;;;;;;5042663;28;20212;-70
2023/03/13 08:19:27;;;;;;;3.08;2.30;;;19.30;63.60;;;;;;5049969;28;20209;-63
2023/03/13 08:22:15;;;;;;;4.55;2.45;;;19.40;63.70;;;;;;5049214;28;20286;-65
2023/03/13 08:25:03;;;;;;;5.97;2.38;;;19.50;63.40;;;;;;5049921;28;20871;-66
2023/03/13 08:27:51;;;;;;;4.97;1.80;;;19.50;63.30;;;;;;5040649;28;20226;-65
2023/03/13 08:30:39;;;;;;;4.70;1.48;;;19.50;63.40;;;;;;5036518;28;20200;-67
2023/03/13 08:33:29;;;;;;;1.98;1.45;;;19.50;63.20;;;;;;5054177;28;20252;-65
2023/03/13 08:36:19;;;;;;;6.13;1.50;;;19.60;63.60;;;;;;5053287;28;20582;-64
2023/03/13 08:39:11;;;;;;;2.95;1.52;;;19.60;63.70;;;;;;5053550;28;20229;-67
2023/03/13 08:41:59;;;;;;;2.45;1.60;;;19.70;73.50;;;;;;5053117;28;20202;-65
2023/03/13 08:44:47;;;;;;;2.15;1.15;;;19.80;63.50;;;;;;5052430;28;20297;-67
2023/03/13 08:47:35;;;;;;;5.35;1.42;;;19.80;63.50;;;;;;5047264;28;20218;-66
2023/03/13 08:50:25;;;;;;;2.15;1.40;;;19.90;63.60;;;;;;5039753;28;20332;-67
2023/03/13 08:53:13;;;;;;;6.10;1.77;;;20.00;63.60;;;;;;5043141;28;20221;-66
2023/03/13 08:56:01;;;;;;;4.03;2.00;;;20.10;63.70;;;;;;5048514;28;20742;-70
2023/03/13 08:58:50;;;;;;;2.92;1.30;;;20.10;63.70;;;;;;5048157;28;20216;-69
2023/03/13 09:01:38;;;;;;;3.80;1.50;;;20.20;64.20;;;;;;5046198;28;20206;-65
2023/03/13 09:04:26;;;;;;;2.97;1.83;;;20.20;63.90;;;;;;5038475;28;20233;-66
2023/03/13 09:07:16;;;;;;;5.07;1.50;;;20.30;64.10;;;;;;5041829;28;20768;-66
2023/03/13 09:10:05;;;;;;;4.20;1.45;;;20.30;63.80;;;;;;5047065;28;20278;-65
2023/03/13 09:12:53;;;;;;;9.00;1.35;;;20.30;63.90;;;;;;5043605;28;20225;-65
2023/03/13 09:15:41;;;;;;;5.05;1.80;;;20.40;64.00;;;;;;5050887;28;20201;-65
2023/03/13 09:18:29;;;;;;;3.70;1.55;;;20.40;63.90;;;;;;5053397;28;20197;-68
2023/03/13 09:21:19;;;;;;;4.85;1.58;;;20.50;63.80;;;;;;5049781;28;20288;-64
2023/03/13 09:24:09;;;;;;;4.18;1.65;;;20.50;63.90;;;;;;5043943;28;20295;-68
2023/03/13 09:26:57;;;;;;;3.22;1.50;;;20.60;64.00;;;;;;5044422;28;20214;-67
2023/03/13 09:29:48;;;;;;;3.97;1.75;;;20.60;63.80;;;;;;5047574;28;20583;-64
2023/03/13 09:32:36;;;;;;;4.97;1.85;;;20.60;64.00;;;;;;5038839;28;20678;-66
2023/03/13 09:35:25;;;;;;;2.83;1.80;;;20.60;63.70;;;;;;5052603;28;20582;-64
2023/03/13 09:38:13;;;;;;;8.40;2.60;;;20.70;64.00;;;;;;5053134;28;20237;-65
2023/03/13 09:41:14;;;;;;;7.93;2.25;;;20.80;64.00;;;;;;5043228;28;20573;-64
2023/03/13 09:44:07;;;;;;;4.70;1.85;;;20.80;63.60;;;;;;5045152;28;20292;-66
2023/03/13 09:47:01;;;;;;;4.68;1.90;;;20.80;63.60;;;;;;5043515;28;20295;-65
2023/03/13 09:49:54;;;;;;;2.15;1.35;;;20.90;63.90;;;;;;5040375;28;20191;-65
2023/03/13 09:52:42;;;;;;;5.07;1.40;;;20.90;63.60;;;;;;5032130;28;20307;-69
2023/03/13 09:55:32;;;;;;;5.07;1.67;;;20.90;63.60;;;;;;5032707;28;20302;-64
2023/03/13 09:58:24;;;;;;;4.03;1.15;;;20.90;63.50;;;;;;5033341;28;20279;-66
2023/03/13 10:01:17;;;;;;;3.42;1.67;;;20.90;63.70;;;;;;5032366;28;20277;-65
2023/03/13 10:04:12;;;;;;;1.80;1.10;;;20.90;63.70;;;;;;5032813;28;20229;-66
2023/03/13 10:07:00;;;;;;;2.72;1.40;;;20.90;63.70;;;;;;5032622;28;20698;-65
2023/03/13 10:09:48;;;;;;;3.85;1.42;;;20.90;63.70;;;;;;5032549;28;20287;-67
2023/03/13 10:12:41;;;;;;;2.58;1.15;;;21.00;63.70;;;;;;5034236;28;20301;-64
2023/03/13 10:15:37;;;;;;;5.10;1.50;;;21.00;63.80;;;;;;5052385;28;20767;-69
2023/03/13 10:18:26;;;;;;;4.80;1.42;;;21.00;63.50;;;;;;5051462;28;20228;-68
2023/03/13 10:21:17;;;;;;;2.22;1.00;;;21.10;63.50;;;;;;5051211;28;20323;-64
2023/03/13 10:24:12;;;;;;;2.83;1.15;;;21.00;63.60;;;;;;5037361;28;20305;-68
2023/03/13 10:27:00;;;;;;;5.53;2.35;;;21.10;63.50;;;;;;5031084;28;20753;-65
2023/03/13 10:29:48;;;;;;;4.63;2.15;;;21.10;63.50;;;;;;5031925;28;20313;-65
2023/03/13 10:32:37;;;;;;;49.72;9.70;;;21.20;63.30;;;;;;5030797;28;20324;-65
2023/03/13 10:35:32;;;;;;;83.25;15.50;;;21.20;63.60;;;;;;5034818;28;20778;-64
2023/03/13 10:38:21;;;;;;;82.68;13.98;;;21.20;63.40;;;;;;5044219;28;20208;-66
2023/03/13 10:41:27;;;;;;;37.50;8.05;;;21.20;63.20;;;;;;5042490;28;20293;-67
2023/03/13 10:44:18;;;;;;;42.97;7.32;;;21.30;63.30;;;;;;5039908;28;20229;-64
2023/03/13 10:47:06;;;;;;;27.40;4.55;;;21.30;63.30;;;;;;5045079;28;21040;-69
2023/03/13 10:49:58;;;;;;;12.95;4.50;;;21.40;63.50;;;;;;5032663;28;20283;-66
2023/03/13 10:52:48;;;;;;;11.93;3.40;;;21.40;63.30;;;;;;5030679;28;20626;-65
2023/03/13 10:55:44;;;;;;;9.73;2.78;;;21.40;63.30;;;;;;5038457;28;20219;-64
2023/03/13 10:58:35;;;;;;;10.55;2.42;;;21.40;63.30;;;;;;5044998;28;20233;-68
2023/03/13 11:01:25;;;;;;;9.75;2.55;;;21.50;63.50;;;;;;5042582;28;20581;-68
2023/03/13 11:04:21;;;;;;;5.78;3.22;;;21.50;63.50;;;;;;5044142;28;20241;-68
2023/03/13 11:07:16;;;;;;;14.93;2.25;;;21.50;63.50;;;;;;5031180;28;20206;-67
2023/03/13 11:10:18;;;;;;;6.60;1.77;;;21.50;63.40;;;;;;5030429;28;20213;-65
2023/03/13 11:13:06;;;;;;;7.82;1.83;;;21.50;63.70;;;;;;5043793;28;20235;-67
2023/03/13 11:16:00;;;;;;;7.25;1.92;;;21.50;63.40;;;;;;5044291;28;20720;-66
2023/03/13 11:19:23;;;;;;;5.85;1.63;;;21.50;63.30;;;;;;5043191;28;20224;-67
2023/03/13 11:22:34;;;;;;;11.75;2.15;;;21.40;78.80;;;;;;5030857;28;20304;-65
2023/03/13 11:25:28;;;;;;;5.88;1.83;;;21.40;63.50;;;;;;5031193;28;20718;-67
2023/03/13 11:28:29;;;;;;;11.63;2.22;;;21.40;63.40;;;;;;5045820;28;20591;-69
2023/03/13 11:31:22;;;;;;;4.40;2.42;;;21.30;63.70;;;;;;5050352;28;20651;-70
2023/03/13 11:34:22;;;;;;;4.20;2.45;;;21.30;63.70;;;;;;5050928;28;20232;-72
2023/03/13 11:37:13;;;;;;;5.15;2.42;;;21.20;63.80;;;;;;5051683;28;20282;-70
2023/03/13 11:40:15;;;;;;;6.25;1.48;;;21.10;64.00;;;;;;5050794;28;20201;-70
2023/03/13 11:43:39;;;;;;;3.95;1.45;;;21.10;64.00;;;;;;5050673;28;20228;-72
2023/03/13 11:46:44;;;;;;;5.43;1.73;;;21.00;64.40;;;;;;5041340;28;20209;-68
2023/03/13 11:49:50;;;;;;;5.57;1.60;;;20.90;63.90;;;;;;5044998;28;20225;-69
2023/03/13 11:52:51;;;;;;;5.53;2.45;;;20.80;64.30;;;;;;5034131;28;20268;-71
2023/03/13 11:55:53;;;;;;;4.78;2.00;;;20.80;65.20;;;;;;5041443;28;20205;-72
2023/03/13 11:59:13;;;;;;;5.18;2.42;;;20.70;64.70;;;;;;5043268;28;20197;-69
2023/03/13 12:02:10;;;;;;;4.07;1.98;;;20.40;78.70;;;;;;5037740;28;20335;-68
2023/03/13 12:05:01;;;;;;;3.25;1.60;;;20.60;65.00;;;;;;5031031;28;20213;-67
2023/03/13 12:07:55;;;;;;;4.00;1.27;;;20.50;65.20;;;;;;5032481;28;20258;-67
2023/03/13 12:10:52;;;;;;;8.07;1.48;;;20.50;65.60;;;;;;5034361;28;20224;-67
2023/03/13 12:13:44;;;;;;;2.50;1.33;;;20.50;65.80;;;;;;5034085;28;20360;-69
2023/03/13 12:16:41;;;;;;;2.65;1.30;;;20.50;65.70;;;;;;5034001;28;20202;-71
2023/03/13 12:19:33;;;;;;;5.07;1.40;;;20.60;65.90;;;;;;5034678;28;20220;-67
2023/03/13 12:22:27;;;;;;;4.90;1.67;;;20.70;66.00;;;;;;5034678;28;20700;-68
2023/03/13 12:25:20;;;;;;;4.15;1.60;;;20.70;65.90;;;;;;5034815;28;20629;-67
2023/03/13 12:28:36;;;;;;;7.30;1.48;;;20.80;65.60;;;;;;5034591;28;20218;-69
2023/03/13 12:31:28;;;;;;;5.35;3.28;;;20.80;65.80;;;;;;5054213;28;20276;-68
2023/03/13 12:34:21;;;;;;;6.78;2.30;;;20.90;65.50;;;;;;5044468;28;20229;-70
2023/03/13 12:37:18;;;;;;;5.03;1.50;;;20.90;65.40;;;;;;5036278;28;20256;-69
2023/03/13 12:40:15;;;;;;;3.13;1.77;;;20.70;80.70;;;;;;5036237;28;20281;-67
2023/03/13 12:43:10;;;;;;;2.05;1.45;;;20.90;65.60;;;;;;5034604;28;20709;-68
2023/03/13 12:46:18;;;;;;;3.25;1.38;;;21.00;66.00;;;;;;5038939;28;20276;-66
2023/03/13 12:49:29;;;;;;;2.70;1.50;;;21.00;66.10;;;;;;5033765;28;20986;-68
2023/03/13 12:52:56;;;;;;;4.57;1.42;;;21.00;65.50;;;;;;5033608;28;20221;-68
2023/03/13 12:55:55;;;;;;;1.90;1.15;;;21.00;65.80;;;;;;5034908;28;20668;-66
2023/03/13 12:58:48;;;;;;;7.30;1.30;;;21.00;66.40;;;;;;5038534;28;20264;-68
2023/03/13 13:01:42;;;;;;;9.35;3.70;;;21.00;65.80;;;;;;5044249;28;20201;-68
2023/03/13 13:04:32;;;;;;;2.95;1.48;;;20.90;66.40;;;;;;5048177;28;20208;-70
2023/03/13 13:07:25;;;;;;;3.15;1.67;;;20.90;66.00;;;;;;5054258;28;20205;-68
2023/03/13 13:10:21;;;;;;;3.42;1.20;;;20.80;66.00;;;;;;5053570;28;20690;-69
2023/03/13 13:13:29;;;;;;;5.32;1.15;;;20.80;66.00;;;;;;5052912;28;20360;-69
2023/03/13 13:16:21;;;;;;;3.55;1.80;;;20.80;66.20;;;;;;5046493;28;20704;-69
2023/03/13 13:19:45;;;;;;;3.33;1.30;;;20.90;66.30;;;;;;5043530;28;20194;-69
2023/03/13 13:22:49;;;;;;;3.55;1.33;;;20.90;66.10;;;;;;5044635;28;20765;-67
2023/03/13 13:25:39;;;;;;;3.40;1.95;;;21.00;66.00;;;;;;5042891;28;20288;-69
2023/03/13 13:28:35;;;;;;;2.33;1.48;;;21.10;66.00;;;;;;5043835;28;20367;-69
2023/03/13 13:31:45;;;;;;;7.63;1.42;;;21.40;66.60;;;;;;5032954;28;20210;-70
2023/03/13 13:35:00;;;;;;;2.55;1.27;;;21.10;66.00;;;;;;5033082;28;20234;-68
2023/03/13 13:37:49;;;;;;;4.68;1.65;;;21.20;65.70;;;;;;5032988;28;20200;-71
2023/03/13 13:40:37;;;;;;;5.10;2.08;;;21.20;65.90;;;;;;5033168;28;20197;-72
2023/03/13 13:43:25;;;;;;;6.53;2.67;;;21.20;66.00;;;;;;5037197;28;20289;-70
2023/03/13 13:46:23;;;;;;;2.75;1.90;;;21.20;66.00;;;;;;5039401;28;20334;-71
2023/03/13 13:49:16;;;;;;;4.75;2.20;;;21.20;65.90;;;;;;5042859;28;20769;-72
2023/03/13 13:52:39;;;;;;;2.35;1.33;;;21.10;78.80;;;;;;5051925;28;20206;-70
2023/03/13 13:55:44;;;;;;;1.88;1.15;;;21.10;65.80;;;;;;5042388;28;20202;-67
2023/03/13 13:58:32;;;;;;;2.10;1.00;;;21.10;66.00;;;;;;5050054;28;20334;-69
2023/03/13 14:01:21;;;;;;;6.78;1.30;;;21.10;66.10;;;;;;5052747;28;20201;-71
2023/03/13 14:04:15;;;;;;;3.13;1.35;;;21.00;66.20;;;;;;5051522;28;20213;-69
2023/03/13 14:07:05;;;;;;;3.03;0.93;;;21.00;66.30;;;;;;5052103;28;20276;-72
2023/03/13 14:10:02;;;;;;;1.70;1.05;;;21.00;66.50;;;;;;5051990;28;20693;-70
2023/03/13 14:12:53;;;;;;;2.90;1.52;;;21.00;66.30;;;;;;5051526;28;20734;-72
2023/03/13 14:15:43;;;;;;;2.55;1.23;;;21.00;66.40;;;;;;5051943;28;20202;-70
2023/03/13 14:18:32;;;;;;;6.90;1.40;;;21.00;66.20;;;;;;5051946;28;20239;-69
2023/03/13 14:21:22;;;;;;;3.47;1.60;;;21.10;66.50;;;;;;5051634;28;20267;-70
2023/03/13 14:24:14;;;;;;;7.47;1.65;;;21.10;66.60;;;;;;5051469;28;20217;-70
2023/03/13 14:27:14;;;;;;;1.00;0.88;;;21.20;66.20;;;;;;5051850;28;20572;-70
2023/03/13 14:30:04;;;;;;;2.70;1.10;;;21.30;66.00;;;;;;5050105;28;20248;-71
2023/03/13 14:32:53;;;;;;;3.58;1.35;;;21.30;66.00;;;;;;5051435;28;20229;-72
2023/03/13 14:35:42;;;;;;;1.00;1.00;;;21.30;66.30;;;;;;5051098;28;20197;-69
2023/03/13 14:38:31;;;;;;;2.78;0.95;;;21.40;66.40;;;;;;5051172;28;20229;-69
2023/03/13 14:41:47;;;;;;;3.22;1.10;;;21.40;66.00;;;;;;5032281;28;20236;-71
2023/03/13 14:44:37;;;;;;;2.58;1.35;;;21.40;66.10;;;;;;5032262;28;20666;-70
2023/03/13 14:47:29;;;;;;;3.22;1.95;;;21.40;66.10;;;;;;5047787;28;20700;-71
2023/03/13 14:50:18;;;;;;;1.95;1.23;;;21.40;66.10;;;;;;5040164;28;20226;-73
2023/03/13 14:53:12;;;;;;;3.00;1.27;;;21.40;66.10;;;;;;5030694;28;20229;-72
2023/03/13 14:56:18;;;;;;;2.25;0.98;;;21.40;66.20;;;;;;5031640;28;20280;-73
2023/03/13 14:59:15;;;;;;;3.90;1.38;;;21.30;66.00;;;;;;5031527;28;20229;-71
2023/03/13 15:02:15;;;;;;;2.17;1.00;;;21.20;75.20;;;;;;5031792;28;20324;-71
2023/03/13 15:05:06;;;;;;;0.70;0.70;;;21.30;66.00;;;;;;5032215;28;20193;-73
2023/03/13 15:07:54;;;;;;;1.45;1.35;;;21.30;66.30;;;;;;5031811;28;20206;-71
2023/03/13 15:10:43;;;;;;;1.15;0.98;;;21.20;66.40;;;;;;5039734;28;20308;-72
2023/03/13 15:13:36;;;;;;;1.23;0.80;;;21.20;66.60;;;;;;5051516;28;20740;-73
2023/03/13 15:16:26;;;;;;;0.88;0.80;;;21.20;66.30;;;;;;5050570;28;20256;-71
2023/03/13 15:19:15;;;;;;;1.23;1.10;;;21.30;66.50;;;;;;5050865;28;20205;-72
2023/03/13 15:22:03;;;;;;;3.58;1.10;;;21.30;75.70;;;;;;5050615;28;20201;-71
2023/03/13 15:24:51;;;;;;;4.00;1.08;;;21.40;66.50;;;;;;5050809;28;20622;-68
2023/03/13 15:27:52;;;;;;;2.45;0.90;;;21.50;66.40;;;;;;5050409;28;20701;-70
2023/03/13 15:30:41;;;;;;;1.77;0.80;;;21.50;66.40;;;;;;5035884;28;20682;-72
2023/03/13 15:33:30;;;;;;;2.92;1.38;;;21.50;66.40;;;;;;5050079;28;20275;-69
2023/03/13 15:36:19;;;;;;;2.00;0.90;;;21.50;66.10;;;;;;5050365;28;20237;-69
2023/03/13 15:39:13;;;;;;;1.83;1.02;;;21.50;66.40;;;;;;5050717;28;20343;-68
2023/03/13 15:42:01;;;;;;;2.85;1.00;;;21.40;75.10;;;;;;5051945;28;20290;-70
2023/03/13 15:44:49;;;;;;;3.80;0.90;;;21.50;66.00;;;;;;5054845;28;20788;-66
2023/03/13 15:47:37;;;;;;;1.65;0.85;;;21.50;66.10;;;;;;5054952;28;20201;-70
2023/03/13 15:50:29;;;;;;;1.10;1.00;;;21.50;66.20;;;;;;5055645;28;20294;-68
2023/03/13 15:53:21;;;;;;;1.15;0.98;;;21.40;65.90;;;;;;5054735;28;20228;-69
2023/03/13 15:56:15;;;;;;;2.58;0.98;;;21.40;66.20;;;;;;5054472;28;20703;-70
2023/03/13 15:59:11;;;;;;;1.20;1.08;;;21.40;66.40;;;;;;5055193;28;20307;-68
2023/03/13 16:01:59;;;;;;;1.55;1.10;;;21.60;79.40;;;;;;5053744;28;20279;-67
2023/03/13 16:04:47;;;;;;;1.30;0.90;;;21.30;66.10;;;;;;5054799;28;20327;-67
2023/03/13 16:07:35;;;;;;;2.25;0.90;;;21.20;66.00;;;;;;5054583;28;20202;-70
2023/03/13 16:10:27;;;;;;;2.70;0.98;;;21.20;66.20;;;;;;5054179;28;20221;-67
2023/03/13 16:13:15;;;;;;;1.50;0.80;;;21.10;66.10;;;;;;5054478;28;20275;-68
2023/03/13 16:16:13;;;;;;;1.83;0.88;;;21.10;66.40;;;;;;5054845;28;20205;-66
2023/03/13 16:19:03;;;;;;;1.30;1.00;;;21.10;66.20;;;;;;5039094;28;20205;-69
2023/03/13 16:21:51;;;;;;;0.70;0.70;;;21.20;66.20;;;;;;5054167;28;20201;-67
2023/03/13 16:24:39;;;;;;;2.13;0.82;;;21.20;66.40;;;;;;5053905;28;20208;-69
2023/03/13 16:27:29;;;;;;;1.30;1.00;;;21.20;66.20;;;;;;5054450;28;20255;-68
2023/03/13 16:30:19;;;;;;;3.83;1.30;;;21.30;66.30;;;;;;5054201;28;20278;-70
2023/03/13 16:33:07;;;;;;;1.33;0.90;;;21.30;65.90;;;;;;5054320;28;20241;-68
2023/03/13 16:35:55;;;;;;;1.00;0.80;;;21.40;65.90;;;;;;5054128;28;20224;-68
2023/03/13 16:38:43;;;;;;;1.52;0.95;;;21.50;65.90;;;;;;5054191;28;20210;-67
2023/03/13 16:41:32;;;;;;;1.83;0.80;;;21.50;65.70;;;;;;5053798;28;20220;-69
2023/03/13 16:44:21;;;;;;;1.08;0.90;;;21.50;65.60;;;;;;5054294;28;20249;-68
2023/03/13 16:47:19;;;;;;;1.13;0.82;;;21.50;65.80;;;;;;5039558;28;20230;-71
2023/03/13 16:50:20;;;;;;;1.10;0.80;;;21.50;65.70;;;;;;5033930;28;20345;-66
2023/03/13 16:53:08;;;;;;;2.58;0.85;;;21.50;65.70;;;;;;5033552;28;20355;-68
2023/03/13 16:55:56;;;;;;;1.33;0.80;;;21.50;66.10;;;;;;5034105;28;20248;-70
2023/03/13 16:58:45;;;;;;;1.48;1.10;;;21.50;65.90;;;;;;5037851;28;20213;-70
2023/03/13 17:01:35;;;;;;;0.85;0.80;;;21.40;66.00;;;;;;5053575;28;20204;-71
2023/03/13 17:04:23;;;;;;;1.20;0.80;;;21.40;66.00;;;;;;5052545;28;20697;-67
2023/03/13 17:07:17;;;;;;;2.15;0.85;;;21.40;66.20;;;;;;5052677;28;20197;-69
2023/03/13 17:10:19;;;;;;;1.45;0.93;;;21.40;66.50;;;;;;5052664;28;20209;-68
2023/03/13 17:13:07;;;;;;;0.90;0.90;;;21.30;66.30;;;;;;5052119;28;20220;-68
2023/03/13 17:15:55;;;;;;;2.13;0.80;;;21.30;66.10;;;;;;5052371;28;20233;-69
2023/03/13 17:18:47;;;;;;;1.10;0.80;;;21.20;66.90;;;;;;5053549;28;20205;-68
2023/03/13 17:21:36;;;;;;;0.80;0.70;;;21.20;66.20;;;;;;5052036;28;20277;-68
2023/03/13 17:24:24;;;;;;;2.33;0.82;;;21.20;66.20;;;;;;5053302;28;20280;-69
2023/03/13 17:27:13;;;;;;;1.00;0.90;;;21.20;66.40;;;;;;5053326;28;20327;-68
2023/03/13 17:30:01;;;;;;;2.75;0.80;;;21.20;66.00;;;;;;5053785;28;20209;-69
2023/03/13 17:32:49;;;;;;;2.50;0.88;;;21.30;66.10;;;;;;5052324;28;20312;-68
2023/03/13 17:35:39;;;;;;;0.90;0.80;;;21.30;66.00;;;;;;5052262;28;20193;-67
2023/03/13 17:38:27;;;;;;;1.23;0.85;;;21.40;66.10;;;;;;5052411;28;20673;-69
2023/03/13 17:41:17;;;;;;;1.30;1.10;;;21.40;65.70;;;;;;5051701;28;20308;-71
2023/03/13 17:44:07;;;;;;;1.20;0.90;;;21.40;65.80;;;;;;5052788;28;20310;-71
2023/03/13 17:46:55;;;;;;;2.08;0.90;;;21.40;65.80;;;;;;5052100;28;20238;-68
2023/03/13 17:49:43;;;;;;;0.90;0.80;;;21.50;65.80;;;;;;5053072;28;20677;-67
2023/03/13 17:52:33;;;;;;;0.70;0.65;;;21.50;65.90;;;;;;5052162;28;20221;-67
2023/03/13 17:55:21;;;;;;;0.73;0.73;;;21.50;65.90;;;;;;5052843;28;20674;-69
2023/03/13 17:58:09;;;;;;;1.60;0.90;;;21.50;65.90;;;;;;5052961;28;20602;-66
2023/03/13 18:00:57;;;;;;;0.70;0.70;;;21.40;65.70;;;;;;5052523;28;20270;-71
2023/03/13 18:03:45;;;;;;;1.92;0.70;;;21.40;66.10;;;;;;5052468;28;20221;-68
2023/03/13 18:06:38;;;;;;;0.73;0.73;;;21.40;66.00;;;;;;5051374;28;20317;-66
2023/03/13 18:09:29;;;;;;;2.35;0.80;;;21.30;65.80;;;;;;5052898;28;20280;-68
2023/03/13 18:12:17;;;;;;;0.93;0.60;;;21.30;65.90;;;;;;5052857;28;20259;-70
2023/03/13 18:15:06;;;;;;;1.13;0.88;;;21.30;66.20;;;;;;5052346;28;20288;-68
2023/03/13 18:17:54;;;;;;;1.00;0.90;;;21.20;66.30;;;;;;5051711;28;20292;-69
2023/03/13 18:20:42;;;;;;;0.93;0.80;;;21.20;66.20;;;;;;5051656;28;20252;-67
2023/03/13 18:23:30;;;;;;;1.25;1.05;;;21.20;66.30;;;;;;5051897;28;20343;-68
2023/03/13 18:26:26;;;;;;;0.98;0.80;;;21.20;66.20;;;;;;5050704;28;20823;-69
2023/03/13 18:29:19;;;;;;;0.90;0.90;;;21.10;66.10;;;;;;5052126;28;20284;-71
2023/03/13 18:32:07;;;;;;;0.85;0.82;;;21.30;80.90;;;;;;5051924;28;20725;-71
2023/03/13 18:34:55;;;;;;;0.70;0.70;;;21.30;66.10;;;;;;5052293;28;20288;-71
2023/03/13 18:37:45;;;;;;;0.88;0.80;;;21.30;65.80;;;;;;5052069;28;20201;-66
2023/03/13 18:40:33;;;;;;;1.00;0.80;;;21.40;65.80;;;;;;5051867;28;20255;-68
2023/03/13 18:43:22;;;;;;;1.13;1.02;;;21.40;65.70;;;;;;5051536;28;20228;-69
2023/03/13 18:46:17;;;;;;;0.70;0.70;;;21.40;65.60;;;;;;5051988;28;20283;-69
2023/03/13 18:49:10;;;;;;;1.08;0.70;;;21.50;65.70;;;;;;5051940;28;20260;-69
2023/03/13 18:51:58;;;;;;;0.90;0.70;;;21.70;75.20;;;;;;5051610;28;20221;-68
2023/03/13 18:54:46;;;;;;;0.90;0.90;;;21.50;65.90;;;;;;5051956;28;20753;-70
2023/03/13 18:57:34;;;;;;;0.90;0.80;;;21.50;65.60;;;;;;5051805;28;20201;-67
2023/03/13 19:00:27;;;;;;;0.90;0.90;;;21.50;65.90;;;;;;5051713;28;20693;-70
2023/03/13 19:03:19;;;;;;;1.42;0.80;;;21.40;65.70;;;;;;5051415;28;20654;-69
2023/03/13 19:06:18;;;;;;;1.08;0.80;;;21.40;65.90;;;;;;5051489;28;20202;-69
2023/03/13 19:09:12;;;;;;;2.15;1.10;;;21.40;65.80;;;;;;5051660;28;20251;-70
2023/03/13 19:12:20;;;;;;;0.90;0.90;;;21.40;66.20;;;;;;5051182;28;20600;-71
2023/03/13 19:15:08;;;;;;;0.80;0.80;;;21.30;66.10;;;;;;5051352;28;20344;-67
2023/03/13 19:17:59;;;;;;;1.15;0.80;;;21.30;65.90;;;;;;5051033;28;20241;-71
2023/03/13 19:20:50;;;;;;;0.95;0.90;;;21.20;65.90;;;;;;5051538;28;20201;-67
2023/03/13 19:23:38;;;;;;;1.88;1.25;;;21.30;66.40;;;;;;5050930;28;20698;-67
2023/03/13 19:26:29;;;;;;;1.02;0.90;;;21.30;66.00;;;;;;5051249;28;20201;-67
2023/03/13 19:29:20;;;;;;;0.90;0.80;;;21.20;66.00;;;;;;5051395;28;20197;-68
2023/03/13 19:32:13;;;;;;;0.90;0.80;;;21.40;80.90;;;;;;5051435;28;20292;-68
2023/03/13 19:35:02;;;;;;;1.58;0.82;;;21.30;65.90;;;;;;5051044;28;20284;-70
2023/03/13 19:37:50;;;;;;;1.35;0.85;;;21.30;65.90;;;;;;5051263;28;20247;-67
2023/03/13 19:40:38;;;;;;;1.10;1.00;;;21.40;66.00;;;;;;5051087;28;20365;-67
2023/03/13 19:43:26;;;;;;;0.82;0.80;;;21.40;65.70;;;;;;5050808;28;20304;-69
2023/03/13 19:46:22;;;;;;;0.85;0.80;;;21.30;65.60;;;;;;5051153;28;20267;-68
2023/03/13 19:49:12;;;;;;;1.02;0.90;;;21.50;65.60;;;;;;5051004;28;20197;-69
2023/03/13 19:52:01;;;;;;;1.40;0.80;;;21.70;80.60;;;;;;5050911;28;20630;-68
2023/03/13 19:54:52;;;;;;;1.00;0.90;;;21.50;65.60;;;;;;5051215;28;20197;-68
2023/03/13 19:57:40;;;;;;;1.35;0.70;;;21.50;65.70;;;;;;5050938;28;20629;-68
2023/03/13 20:00:28;;;;;;;2.47;1.00;;;21.50;65.70;;;;;;5050934;28;20645;-69
2023/03/13 20:03:16;;;;;;;1.02;1.00;;;21.50;65.80;;;;;;5050637;28;20683;-66
2023/03/13 20:06:06;;;;;;;1.00;0.90;;;21.50;66.00;;;;;;5051223;28;20216;-69
2023/03/13 20:08:57;;;;;;;1.40;0.90;;;21.40;66.10;;;;;;5051563;28;20243;-71
2023/03/13 20:11:45;;;;;;;1.15;0.80;;;21.40;66.20;;;;;;5050463;28;20367;-67
2023/03/13 20:14:33;;;;;;;1.02;0.80;;;21.40;66.30;;;;;;5051057;28;20207;-67
2023/03/13 20:17:21;;;;;;;0.80;0.80;;;21.30;66.20;;;;;;5050982;28;20206;-69
2023/03/13 20:20:12;;;;;;;1.10;0.80;;;21.30;66.10;;;;;;5050754;28;20737;-68
2023/03/13 20:23:00;;;;;;;0.70;0.70;;;21.20;66.20;;;;;;5050318;28;20705;-69
2023/03/13 20:25:50;;;;;;;0.80;0.80;;;21.20;66.30;;;;;;5050609;28;20289;-69
2023/03/13 20:28:39;;;;;;;0.85;0.85;;;21.20;66.10;;;;;;5051863;28;20291;-69
2023/03/13 20:31:30;;;;;;;1.45;0.90;;;21.30;66.10;;;;;;5054356;28;20629;-70
2023/03/13 20:34:18;;;;;;;0.90;0.90;;;21.30;66.20;;;;;;5054165;28;20707;-66
2023/03/13 20:37:06;;;;;;;0.80;0.80;;;21.30;66.10;;;;;;5054002;28;20212;-67
2023/03/13 20:39:54;;;;;;;0.90;0.90;;;21.40;66.10;;;;;;5054123;28;20691;-66
2023/03/13 20:42:43;;;;;;;1.20;1.10;;;21.40;65.90;;;;;;5053796;28;20754;-71
2023/03/13 20:45:31;;;;;;;2.90;1.50;;;21.50;66.00;;;;;;5054131;28;20205;-69
2023/03/13 20:48:20;;;;;;;0.73;0.70;;;21.50;65.90;;;;;;5054231;28;20623;-66
2023/03/13 20:51:09;;;;;;;1.00;0.90;;;21.50;65.70;;;;;;5054229;28;20276;-67
2023/03/13 20:53:57;;;;;;;0.90;0.90;;;21.60;66.00;;;;;;5053776;28;20266;-70
2023/03/13 20:56:45;;;;;;;1.45;1.35;;;21.50;65.70;;;;;;5054277;28;20208;-69
2023/03/13 20:59:34;;;;;;;0.80;0.80;;;21.50;65.80;;;;;;5053979;28;20278;-69
2023/03/13 21:02:22;;;;;;;1.13;1.02;;;21.50;66.00;;;;;;5053737;28;20221;-66
2023/03/13 21:05:11;;;;;;;1.20;1.10;;;21.50;66.10;;;;;;5054005;28;20281;-66
2023/03/13 21:07:59;;;;;;;1.30;1.00;;;21.50;66.20;;;;;;5053803;28;20562;-68
2023/03/13 21:10:47;;;;;;;1.10;1.00;;;21.40;66.10;;;;;;5053826;28;20227;-68
2023/03/13 21:13:35;;;;;;;0.90;0.90;;;21.40;66.10;;;;;;5053407;28;20300;-68
2023/03/13 21:16:24;;;;;;;1.05;0.95;;;21.40;66.20;;;;;;5053709;28;20263;-68
2023/03/13 21:19:12;;;;;;;1.55;1.05;;;21.30;66.20;;;;;;5053492;28;20201;-67
2023/03/13 21:22:00;;;;;;;0.98;0.98;;;21.50;80.20;;;;;;5053242;28;20193;-68
2023/03/13 21:24:48;;;;;;;1.10;1.00;;;21.30;66.30;;;;;;5053351;28;20213;-66
2023/03/13 21:27:37;;;;;;;1.25;1.15;;;21.30;66.60;;;;;;5053918;28;20229;-68
2023/03/13 21:30:25;;;;;;;1.00;0.80;;;21.30;66.30;;;;;;5053937;28;20288;-67
2023/03/13 21:33:15;;;;;;;2.15;1.08;;;21.30;66.50;;;;;;5052793;28;20300;-69
2023/03/13 21:36:03;;;;;;;0.80;0.80;;;21.30;66.30;;;;;;5053350;28;20670;-68
2023/03/13 21:38:51;;;;;;;0.90;0.90;;;21.40;66.20;;;;;;5053053;28;20200;-70
2023/03/13 21:41:39;;;;;;;0.98;0.90;;;21.40;65.90;;;;;;5052764;28;20203;-68
2023/03/13 21:44:27;;;;;;;0.70;0.70;;;21.50;66.00;;;;;;5053461;28;20229;-67
2023/03/13 21:47:23;;;;;;;1.00;0.90;;;21.50;65.90;;;;;;5053285;28;20232;-66
2023/03/13 21:50:13;;;;;;;0.90;0.90;;;21.50;65.90;;;;;;5052886;28;20197;-70
2023/03/13 21:53:01;;;;;;;0.73;0.73;;;21.50;65.80;;;;;;5052689;28;20248;-69
2023/03/13 21:55:50;;;;;;;0.80;0.80;;;21.60;65.60;;;;;;5053384;28;20201;-70
2023/03/13 21:58:38;;;;;;;0.70;0.70;;;21.60;65.80;;;;;;5052827;28;20284;-69
2023/03/13 22:01:26;;;;;;;0.90;0.90;;;21.50;65.60;;;;;;5052597;28;20704;-69
2023/03/13 22:04:14;;;;;;;0.75;0.75;;;21.50;65.80;;;;;;5052678;28;20217;-69
2023/03/13 22:07:04;;;;;;;1.45;1.17;;;21.50;66.10;;;;;;5052731;28;20693;-69
2023/03/13 22:09:52;;;;;;;0.82;0.82;;;21.50;65.80;;;;;;5052741;28;20640;-71
2023/03/13 22:12:40;;;;;;;0.90;0.80;;;21.50;66.10;;;;;;5052426;28;20221;-68
2023/03/13 22:15:28;;;;;;;1.08;0.98;;;21.40;66.00;;;;;;5052736;28;20284;-66
2023/03/13 22:18:16;;;;;;;0.80;0.80;;;21.40;66.10;;;;;;5052670;28;20266;-67
2023/03/13 22:21:05;;;;;;;2.05;0.93;;;21.30;65.90;;;;;;5051903;28;20197;-71
2023/03/13 22:23:54;;;;;;;0.70;0.70;;;21.30;66.00;;;;;;5052456;28;20213;-68
2023/03/13 22:26:42;;;;;;;0.85;0.82;;;21.30;66.10;;;;;;5052397;28;20288;-69
2023/03/13 22:29:31;;;;;;;0.80;0.80;;;21.30;66.10;;;;;;5052220;28;20241;-68
2023/03/13 22:32:19;;;;;;;0.88;0.80;;;21.30;66.10;;;;;;5051855;28;20713;-67
2023/03/13 22:35:08;;;;;;;0.80;0.80;;;21.40;66.00;;;;;;5052322;28;20244;-66
2023/03/13 22:37:56;;;;;;;1.23;0.80;;;21.40;66.20;;;;;;5052008;28;20701;-70
2023/03/13 22:40:45;;;;;;;0.85;0.85;;;21.40;66.00;;;;;;5052042;28;20197;-68
2023/03/13 22:43:34;;;;;;;4.10;1.08;;;21.50;65.90;;;;;;5051894;28;20247;-66
2023/03/13 22:46:22;;;;;;;1.33;0.60;;;21.50;65.80;;;;;;5051806;28;20734;-68
2023/03/13 22:49:10;;;;;;;0.70;0.70;;;21.50;65.60;;;;;;5052032;28;20250;-69